CCA1652 ZYTX-ZBAA
Flight info
| Callsign | CCA1652 |
|---|---|
| Flight time | N/A |
| Altitude | 27600 |
| Route | OMDUS A575 UKDUM W49 OSUBA |
| Aircraft | A20N/M-SDE2E3FGILRWXY/LB2 |
Departure
| Time | 2026-05-04 09:27 |
|---|---|
| Airport | Shenyang Taoxian International Airport (ZYTX) |
Arrival
| Time | N/A |
|---|---|
| Airport | Beijing Capital International Airport (ZBAA) |
| Time | Latitude | Longitude | Altitude | Speed | Heading |
|---|---|---|---|---|---|
| 2026-05-04 09:12 | 41.63006 | 123.48554 | 203 ft | 0 kts | 49° |
| 2026-05-04 09:14 | 41.63001 | 123.48548 | 203 ft | 3 kts | 23° |
| 2026-05-04 09:14 | 41.62985 | 123.48549 | 215 ft | 2 kts | 319° |
| 2026-05-04 09:14 | 41.62972 | 123.48556 | 212 ft | 0 kts | 4° |
| 2026-05-04 09:15 | 41.62959 | 123.48555 | 209 ft | 2 kts | 16° |
| 2026-05-04 09:15 | 41.62942 | 123.48549 | 211 ft | 2 kts | 14° |
| 2026-05-04 09:17 | 41.62899 | 123.48549 | 209 ft | 0 kts | 329° |
| 2026-05-04 09:18 | 41.62904 | 123.48544 | 213 ft | 2 kts | 329° |
| 2026-05-04 09:18 | 41.62909 | 123.48537 | 213 ft | 4 kts | 311° |
| 2026-05-04 09:18 | 41.62952 | 123.48484 | 210 ft | 9 kts | 322° |
| 2026-05-04 09:18 | 41.62995 | 123.48433 | 203 ft | 8 kts | 318° |
| 2026-05-04 09:19 | 41.63046 | 123.48373 | 211 ft | 11 kts | 320° |
| 2026-05-04 09:19 | 41.63097 | 123.48297 | 209 ft | 11 kts | 288° |
| 2026-05-04 09:19 | 41.63098 | 123.48196 | 203 ft | 10 kts | 248° |
| 2026-05-04 09:19 | 41.63056 | 123.48121 | 206 ft | 11 kts | 230° |
| 2026-05-04 09:20 | 41.63011 | 123.48045 | 207 ft | 8 kts | 256° |
| 2026-05-04 09:20 | 41.63033 | 123.47995 | 210 ft | 9 kts | 320° |
| 2026-05-04 09:20 | 41.63090 | 123.47927 | 205 ft | 11 kts | 317° |
| 2026-05-04 09:20 | 41.63155 | 123.47849 | 212 ft | 17 kts | 320° |
| 2026-05-04 09:21 | 41.63247 | 123.47741 | 208 ft | 17 kts | 318° |
| 2026-05-04 09:21 | 41.63312 | 123.47691 | 211 ft | 8 kts | 4° |
| 2026-05-04 09:21 | 41.63362 | 123.47741 | 210 ft | 12 kts | 46° |
| 2026-05-04 09:21 | 41.63439 | 123.47858 | 213 ft | 19 kts | 48° |
| 2026-05-04 09:22 | 41.63524 | 123.47987 | 211 ft | 18 kts | 47° |
| 2026-05-04 09:22 | 41.63606 | 123.48112 | 206 ft | 18 kts | 49° |
| 2026-05-04 09:22 | 41.63705 | 123.48259 | 203 ft | 25 kts | 49° |
| 2026-05-04 09:22 | 41.63823 | 123.48438 | 210 ft | 26 kts | 50° |
| 2026-05-04 09:23 | 41.63942 | 123.48619 | 208 ft | 26 kts | 49° |
| 2026-05-04 09:23 | 41.64065 | 123.48806 | 211 ft | 27 kts | 49° |
| 2026-05-04 09:23 | 41.64193 | 123.48997 | 216 ft | 28 kts | 50° |
| 2026-05-04 09:23 | 41.64322 | 123.49192 | 203 ft | 28 kts | 48° |
| 2026-05-04 09:25 | 41.64621 | 123.49538 | 205 ft | 12 kts | 327° |
| 2026-05-04 09:25 | 41.64685 | 123.49460 | 208 ft | 13 kts | 311° |
| 2026-05-04 09:26 | 41.64691 | 123.49395 | 203 ft | 5 kts | 257° |
| 2026-05-04 09:26 | 41.64672 | 123.49360 | 216 ft | 7 kts | 229° |
| 2026-05-04 09:26 | 41.64507 | 123.49107 | 213 ft | 75 kts | 229° |
| 2026-05-04 09:26 | 41.63990 | 123.48330 | 208 ft | 145 kts | 228° |
| 2026-05-04 09:27 | 41.63273 | 123.47250 | 662 ft | 161 kts | 229° |
| 2026-05-04 09:27 | 41.62552 | 123.46145 | 1527 ft | 156 kts | 230° |
| 2026-05-04 09:27 | 41.61831 | 123.44878 | 2020 ft | 185 kts | 233° |
| 2026-05-04 09:27 | 41.61074 | 123.43408 | 2698 ft | 207 kts | 236° |
| 2026-05-04 09:28 | 41.60187 | 123.41718 | 3340 ft | 232 kts | 232° |
| 2026-05-04 09:28 | 41.59016 | 123.40197 | 4448 ft | 240 kts | 223° |
| 2026-05-04 09:28 | 41.57744 | 123.38684 | 5394 ft | 252 kts | 230° |
| 2026-05-04 09:28 | 41.56912 | 123.36647 | 6473 ft | 252 kts | 258° |
| 2026-05-04 09:29 | 41.56861 | 123.34305 | 7571 ft | 259 kts | 278° |
| 2026-05-04 09:29 | 41.57061 | 123.32696 | 8372 ft | 261 kts | 282° |
| 2026-05-04 09:29 | 41.57561 | 123.29425 | 9637 ft | 280 kts | 286° |
| 2026-05-04 09:29 | 41.57846 | 123.27752 | 10438 ft | 276 kts | 286° |
| 2026-05-04 09:30 | 41.58271 | 123.25289 | 11737 ft | 276 kts | 286° |
| 2026-05-04 09:30 | 41.58647 | 123.21595 | 12218 ft | 320 kts | 277° |
| 2026-05-04 09:30 | 41.58739 | 123.19619 | 12877 ft | 323 kts | 278° |
| 2026-05-04 09:30 | 41.59091 | 123.16665 | 14004 ft | 323 kts | 286° |
| 2026-05-04 09:31 | 41.59733 | 123.13788 | 15025 ft | 325 kts | 287° |
| 2026-05-04 09:31 | 41.60111 | 123.10768 | 15994 ft | 333 kts | 279° |
| 2026-05-04 09:31 | 41.60367 | 123.07674 | 16876 ft | 337 kts | 279° |
| 2026-05-04 09:31 | 41.60646 | 123.04550 | 17421 ft | 340 kts | 280° |
| 2026-05-04 09:32 | 41.60961 | 123.01412 | 17711 ft | 343 kts | 281° |
| 2026-05-04 09:32 | 41.61306 | 122.98234 | 18397 ft | 349 kts | 281° |
| 2026-05-04 09:34 | 41.63978 | 122.75018 | 24048 ft | 374 kts | 282° |
| 2026-05-04 09:34 | 41.64376 | 122.71566 | 24671 ft | 378 kts | 282° |
| 2026-05-04 09:34 | 41.64777 | 122.68080 | 25293 ft | 381 kts | 283° |
| 2026-05-04 09:34 | 41.65180 | 122.64567 | 25874 ft | 384 kts | 282° |
| 2026-05-04 09:35 | 41.65586 | 122.61018 | 26426 ft | 388 kts | 283° |
| 2026-05-04 09:35 | 41.65995 | 122.57433 | 26985 ft | 392 kts | 283° |
| 2026-05-04 09:35 | 41.66406 | 122.53814 | 27313 ft | 394 kts | 283° |
| 2026-05-04 09:35 | 41.66815 | 122.50199 | 27367 ft | 393 kts | 283° |
| 2026-05-04 09:37 | 41.69725 | 122.24244 | 27359 ft | 414 kts | 282° |
| 2026-05-04 09:37 | 41.70141 | 122.20478 | 27357 ft | 415 kts | 282° |
| 2026-05-04 09:38 | 41.70561 | 122.16661 | 27358 ft | 415 kts | 281° |
| 2026-05-04 09:38 | 41.70764 | 122.12800 | 27354 ft | 420 kts | 272° |
| 2026-05-04 09:38 | 41.70441 | 122.08894 | 27381 ft | 425 kts | 261° |
| 2026-05-04 09:38 | 41.69918 | 122.04979 | 27563 ft | 431 kts | 259° |
| 2026-05-04 09:39 | 41.69354 | 122.01008 | 27604 ft | 440 kts | 259° |
| 2026-05-04 09:39 | 41.68776 | 121.96945 | 27603 ft | 449 kts | 259° |
| 2026-05-04 09:39 | 41.68192 | 121.92826 | 27601 ft | 452 kts | 259° |